Time;durP1;ratioP1;P1;durP2;ratioP2;P2;SDS_P1;SDS_P2;PMS_P1;PMS_P2;Temp;Humidity;BMP_temperature;BMP_pressure;BME280_temperature;BME280_humidity;BME280_pressure;Samples;Min_cycle;Max_cycle;Signal;HPM_P1;HPM_P2
2023/08/29 00:01:35;;;;;;;1.33;1.27;;;;;;;19.93;100.00;98516.66;4961425;28;20039;-91
2023/08/29 00:04:00;;;;;;;2.17;1.92;;;;;;;19.79;100.00;98495.38;4933259;28;20484;-92
2023/08/29 00:06:26;;;;;;;2.53;2.33;;;;;;;19.68;100.00;98484.31;4965840;28;20114;-92
2023/08/29 00:08:51;;;;;;;1.08;1.08;;;;;;;19.59;100.00;98484.72;4937392;28;20142;-92
2023/08/29 00:11:17;;;;;;;1.50;0.93;;;;;;;19.53;100.00;98484.84;4953295;28;20058;-91
2023/08/29 00:13:46;;;;;;;2.17;1.73;;;;;;;19.42;100.00;98480.13;4953906;28;20043;-92
2023/08/29 00:16:16;;;;;;;0.82;0.65;;;;;;;19.47;100.00;98475.72;4953001;28;20066;-92
2023/08/29 00:18:42;;;;;;;1.35;1.25;;;;;;;19.46;100.00;98463.69;4936078;28;20033;-91
2023/08/29 00:21:07;;;;;;;1.77;1.45;;;;;;;19.35;100.00;98440.59;4937127;28;20046;-91
2023/08/29 00:23:33;;;;;;;1.92;1.30;;;;;;;19.40;100.00;98473.50;4953036;28;20034;-91
2023/08/29 00:25:59;;;;;;;1.90;1.80;;;;;;;19.32;100.00;98498.66;4937240;28;20134;-91
2023/08/29 00:28:24;;;;;;;2.80;1.88;;;;;;;19.33;100.00;98528.28;4944742;28;20031;-92
2023/08/29 00:30:51;;;;;;;3.35;1.58;;;;;;;19.33;100.00;98547.97;4936024;28;20066;-91
2023/08/29 00:33:17;;;;;;;1.60;1.50;;;;;;;19.36;100.00;98538.47;4934348;29;20046;-91
2023/08/29 00:35:42;;;;;;;2.45;1.95;;;;;;;19.34;100.00;98529.81;4954323;28;20031;-91
2023/08/29 00:38:11;;;;;;;2.22;2.03;;;;;;;19.26;100.00;98526.09;4936542;28;20513;-92
2023/08/29 00:40:37;;;;;;;2.67;2.05;;;;;;;19.26;100.00;98517.66;4954313;28;20065;-91
2023/08/29 00:43:02;;;;;;;1.90;1.67;;;;;;;19.20;100.00;98494.50;4936967;28;20043;-91
2023/08/29 00:45:32;;;;;;;1.25;1.10;;;;;;;19.19;100.00;98511.88;4938741;28;20041;-92
2023/08/29 00:47:58;;;;;;;0.82;0.82;;;;;;;19.16;100.00;98502.47;4951406;28;20460;-90
2023/08/29 00:50:25;;;;;;;2.33;1.92;;;;;;;19.09;100.00;98505.88;4953310;28;20034;-91
2023/08/29 00:52:54;;;;;;;1.05;1.02;;;;;;;19.06;100.00;98488.03;4936339;28;20421;-90
2023/08/29 00:55:20;;;;;;;2.83;1.63;;;;;;;18.93;100.00;98478.78;4948490;28;20436;-91
2023/08/29 00:57:45;;;;;;;0.88;0.85;;;;;;;18.91;100.00;98475.75;4936307;28;20109;-91
2023/08/29 01:00:12;;;;;;;1.70;1.60;;;;;;;18.91;100.00;98481.38;4953280;28;20777;-92
2023/08/29 01:02:37;;;;;;;1.63;1.40;;;;;;;18.86;100.00;98466.09;5778381;23;20017;-87
2023/08/29 01:05:04;;;;;;;1.42;1.33;;;;;;;18.77;100.00;98471.31;5010218;23;20051;-88
2023/08/29 01:07:29;;;;;;;1.05;0.90;;;;;;;18.75;100.00;98457.06;4953776;28;20450;-88
2023/08/29 01:09:55;;;;;;;1.00;0.90;;;;;;;18.70;100.00;98438.22;4960071;28;20049;-87
2023/08/29 01:12:22;;;;;;;1.55;1.45;;;;;;;18.74;100.00;98444.31;4967018;28;20070;-88
2023/08/29 01:14:55;;;;;;;1.58;1.40;;;;;;;18.69;100.00;98453.56;4968449;28;20039;-88
2023/08/29 01:18:03;;;;;;;2.00;1.75;;;;;;;18.72;100.00;98458.13;4984213;28;20042;-88
2023/08/29 01:20:31;;;;;;;2.38;2.17;;;;;;;18.75;100.00;98457.81;4969825;28;20576;-88
2023/08/29 01:23:06;;;;;;;2.83;2.05;;;;;;;18.72;100.00;98453.28;4955091;28;20383;-89
2023/08/29 01:25:46;;;;;;;1.40;1.13;;;;;;;18.71;100.00;98451.00;4966225;28;20130;-88
2023/08/29 01:28:12;;;;;;;3.95;1.58;;;;;;;18.73;100.00;98454.78;4955746;28;20049;-89
2023/08/29 01:30:39;;;;;;;0.85;0.85;;;;;;;18.74;100.00;98467.53;4971515;28;20510;-88
2023/08/29 01:33:07;;;;;;;2.75;2.55;;;;;;;18.79;100.00;98471.56;4974152;28;20461;-89
2023/08/29 01:35:33;;;;;;;1.75;1.40;;;;;;;18.87;100.00;98475.28;4974288;28;20030;-88
2023/08/29 01:37:58;;;;;;;2.92;1.90;;;;;;;18.94;100.00;98491.53;4964406;28;20584;-89
2023/08/29 01:40:24;;;;;;;1.48;1.38;;;;;;;18.91;100.00;98486.97;4971735;28;20564;-89
2023/08/29 01:42:49;;;;;;;2.13;1.75;;;;;;;18.98;100.00;98492.75;4969923;28;20037;-89
2023/08/29 01:45:15;;;;;;;5.53;2.50;;;;;;;19.01;100.00;98502.16;4984803;28;20117;-88
2023/08/29 01:47:42;;;;;;;1.60;1.50;;;;;;;18.88;100.00;98500.06;4973915;28;20056;-88
2023/08/29 01:50:09;;;;;;;1.42;1.33;;;;;;;18.85;100.00;98494.72;4974382;28;20375;-88
2023/08/29 01:52:35;;;;;;;1.52;1.17;;;;;;;18.78;100.00;98487.66;4970001;28;20344;-89
2023/08/29 01:55:00;;;;;;;1.92;1.42;;;;;;;18.83;100.00;98503.69;4950048;28;20282;-89
2023/08/29 01:57:27;;;;;;;1.63;1.27;;;;;;;18.90;100.00;98502.31;4990084;28;20120;-88
2023/08/29 01:59:53;;;;;;;0.85;0.60;;;;;;;18.99;100.00;98504.75;4970324;28;20739;-88
2023/08/29 02:02:20;;;;;;;1.23;1.13;;;;;;;19.04;100.00;98512.34;4952359;28;20141;-89
2023/08/29 02:04:45;;;;;;;1.35;1.25;;;;;;;19.05;100.00;98525.84;4950018;28;20054;-88
2023/08/29 02:07:11;;;;;;;2.00;1.23;;;;;;;19.07;100.00;98530.97;4968394;28;20038;-89
2023/08/29 02:09:36;;;;;;;1.20;0.75;;;;;;;19.12;100.00;98521.69;4961616;28;20043;-88
2023/08/29 02:12:02;;;;;;;1.40;1.08;;;;;;;19.10;100.00;98515.84;4972795;28;20048;-88
2023/08/29 02:14:28;;;;;;;1.65;1.30;;;;;;;19.10;100.00;98505.34;4958928;28;20038;-88
2023/08/29 02:16:53;;;;;;;3.17;1.40;;;;;;;19.17;100.00;98501.16;4950681;28;20073;-89
2023/08/29 02:19:19;;;;;;;2.30;2.10;;;;;;;19.15;100.00;98491.75;4965437;28;20027;-89
2023/08/29 02:21:45;;;;;;;1.65;1.27;;;;;;;19.17;100.00;98489.94;4962801;28;20039;-89
2023/08/29 02:24:10;;;;;;;1.70;1.35;;;;;;;19.07;100.00;98477.56;4963675;28;20037;-88
2023/08/29 02:26:36;;;;;;;1.73;1.63;;;;;;;19.05;100.00;98482.94;4962579;28;20027;-89
2023/08/29 02:29:01;;;;;;;0.80;0.73;;;;;;;19.05;100.00;98485.75;4948328;28;20033;-88
2023/08/29 02:31:27;;;;;;;1.48;1.38;;;;;;;19.06;100.00;98482.41;4970403;28;20385;-89
2023/08/29 02:33:53;;;;;;;0.88;0.77;;;;;;;19.07;100.00;98483.94;4951489;28;20043;-89
2023/08/29 02:36:19;;;;;;;1.75;1.08;;;;;;;19.16;100.00;98496.09;4979857;28;20066;-88
2023/08/29 02:38:44;;;;;;;1.73;1.08;;;;;;;19.18;100.00;98483.03;4966948;28;20520;-88
2023/08/29 02:41:12;;;;;;;3.78;2.05;;;;;;;19.21;100.00;98484.75;4958934;28;20410;-88
2023/08/29 02:43:38;;;;;;;0.88;0.88;;;;;;;19.12;100.00;98481.59;4972078;28;20429;-88
2023/08/29 02:46:04;;;;;;;0.85;0.80;;;;;;;19.09;100.00;98486.22;4950502;28;20035;-88
2023/08/29 02:48:29;;;;;;;0.68;0.68;;;;;;;19.12;100.00;98490.03;4971771;28;20505;-89
2023/08/29 02:50:55;;;;;;;1.45;1.15;;;;;;;19.14;100.00;98488.19;4951412;28;20398;-88
2023/08/29 02:53:21;;;;;;;3.72;2.58;;;;;;;19.21;100.00;98470.69;4969622;28;20046;-88
2023/08/29 02:55:49;;;;;;;2.20;1.27;;;;;;;19.26;100.00;98471.91;4952600;28;20034;-89
2023/08/29 02:58:15;;;;;;;2.38;1.35;;;;;;;19.23;100.00;98468.13;4952497;28;20031;-88
2023/08/29 03:00:40;;;;;;;4.50;0.85;;;;;;;19.20;100.00;98463.59;4945038;28;20106;-88
2023/08/29 03:03:06;;;;;;;1.90;1.08;;;;;;;19.17;100.00;98442.13;4968171;28;20176;-88
2023/08/29 03:05:32;;;;;;;1.20;1.10;;;;;;;19.04;100.00;98436.47;4947977;28;20122;-89
2023/08/29 03:07:59;;;;;;;0.98;0.98;;;;;;;18.91;100.00;98433.59;4944253;28;20062;-89
2023/08/29 03:10:26;;;;;;;1.17;1.08;;;;;;;18.85;100.00;98421.66;4942446;28;20105;-88
2023/08/29 03:12:53;;;;;;;1.60;1.45;;;;;;;18.82;100.00;98411.50;4956500;28;20072;-88
2023/08/29 03:15:18;;;;;;;1.13;1.00;;;;;;;18.73;100.00;98411.88;4955972;28;20403;-88
2023/08/29 03:17:44;;;;;;;6.47;2.17;;;;;;;18.71;100.00;98417.28;4968157;28;20509;-88
2023/08/29 03:20:11;;;;;;;5.07;2.03;;;;;;;18.69;100.00;98411.44;4980829;28;20101;-89
2023/08/29 03:22:37;;;;;;;0.77;0.77;;;;;;;18.67;100.00;98420.41;4963277;28;20054;-89
2023/08/29 03:25:03;;;;;;;2.42;2.22;;;;;;;18.63;100.00;98414.34;4959810;28;20502;-89
2023/08/29 03:27:29;;;;;;;0.95;0.95;;;;;;;18.64;100.00;98418.66;4969223;28;20037;-88
2023/08/29 03:29:58;;;;;;;1.20;1.10;;;;;;;18.66;100.00;98415.31;4945542;28;20366;-89
2023/08/29 03:32:23;;;;;;;1.25;1.15;;;;;;;18.58;100.00;98424.34;4964804;28;20030;-89
2023/08/29 03:34:53;;;;;;;0.75;0.70;;;;;;;18.55;100.00;98425.41;4958618;28;20111;-88
2023/08/29 03:37:18;;;;;;;2.58;1.92;;;;;;;18.62;100.00;98416.38;4961287;28;20043;-89
2023/08/29 03:39:44;;;;;;;4.38;2.60;;;;;;;18.68;100.00;98435.22;4955317;28;20053;-88
2023/08/29 03:42:10;;;;;;;0.50;0.50;;;;;;;18.71;100.00;98439.75;4967374;28;20487;-88
2023/08/29 03:44:36;;;;;;;1.95;1.48;;;;;;;18.78;100.00;98441.94;4966169;28;20042;-88
2023/08/29 03:47:01;;;;;;;1.75;1.13;;;;;;;18.81;100.00;98443.69;4961773;28;20038;-88
2023/08/29 03:49:28;;;;;;;1.50;1.40;;;;;;;18.71;100.00;98428.53;4954330;28;20066;-88
2023/08/29 03:51:55;;;;;;;1.23;0.68;;;;;;;18.77;100.00;98421.53;4980401;28;20070;-89
2023/08/29 03:54:21;;;;;;;1.25;1.15;;;;;;;18.76;100.00;98413.66;4969219;28;20529;-89
2023/08/29 03:56:48;;;;;;;1.67;1.00;;;;;;;18.75;100.00;98412.13;4970540;28;20492;-89
2023/08/29 03:59:13;;;;;;;1.60;1.50;;;;;;;18.73;100.00;98409.06;4948261;28;20031;-88
2023/08/29 04:01:40;;;;;;;1.08;0.75;;;;;;;18.77;100.00;98423.56;4952675;28;20034;-88
2023/08/29 04:04:06;;;;;;;2.05;1.20;;;;;;;18.76;100.00;98420.03;4956084;28;20496;-88
2023/08/29 04:06:34;;;;;;;1.00;0.93;;;;;;;18.77;100.00;98418.72;4965608;28;20407;-88
2023/08/29 04:09:00;;;;;;;1.73;1.27;;;;;;;18.84;100.00;98420.94;4967683;28;20089;-89
2023/08/29 04:11:26;;;;;;;0.47;0.47;;;;;;;18.79;100.00;98413.34;4960837;28;20038;-88
2023/08/29 04:13:51;;;;;;;0.93;0.73;;;;;;;18.79;100.00;98406.97;4968019;28;20462;-88
2023/08/29 04:16:17;;;;;;;2.28;2.08;;;;;;;18.73;100.00;98404.22;4946034;28;20396;-88
2023/08/29 04:18:42;;;;;;;0.88;0.88;;;;;;;18.65;100.00;98406.13;4976832;28;20046;-88
2023/08/29 04:21:09;;;;;;;0.20;0.20;;;;;;;18.62;100.00;98404.38;4978204;28;20035;-89
2023/08/29 04:23:34;;;;;;;1.38;0.75;;;;;;;18.61;100.00;98420.47;4977865;28;20394;-88
2023/08/29 04:26:01;;;;;;;0.80;0.52;;;;;;;18.56;100.00;98432.53;4956562;28;20027;-89
2023/08/29 04:28:27;;;;;;;0.60;0.60;;;;;;;18.54;100.00;98420.31;4967785;28;20082;-89
2023/08/29 04:30:52;;;;;;;2.80;1.05;;;;;;;18.47;100.00;98426.50;4953818;28;20038;-88
2023/08/29 04:33:18;;;;;;;0.85;0.85;;;;;;;18.39;100.00;98417.94;4966733;28;20097;-89
2023/08/29 04:35:44;;;;;;;1.13;0.98;;;;;;;18.44;100.00;98431.13;4960496;28;20034;-89
2023/08/29 04:38:09;;;;;;;3.35;0.47;;;;;;;18.47;100.00;98413.25;4959532;28;20034;-88
2023/08/29 04:40:36;;;;;;;1.55;1.45;;;;;;;18.45;100.00;98421.41;4972446;28;20043;-88
2023/08/29 04:43:02;;;;;;;0.75;0.75;;;;;;;18.36;100.00;98416.16;4963453;28;20060;-88
2023/08/29 04:45:27;;;;;;;2.00;1.90;;;;;;;18.28;100.00;98418.03;4980200;28;20089;-88
2023/08/29 04:47:54;;;;;;;1.95;1.13;;;;;;;18.27;100.00;98396.91;4955784;28;20027;-88
2023/08/29 04:50:20;;;;;;;1.35;1.25;;;;;;;18.21;100.00;98403.84;4955595;28;20031;-88
2023/08/29 04:52:46;;;;;;;1.80;1.17;;;;;;;18.20;100.00;98403.09;4947926;28;20030;-88
2023/08/29 04:55:12;;;;;;;2.63;2.42;;;;;;;18.19;100.00;98410.00;4941896;28;20033;-88
2023/08/29 04:57:38;;;;;;;1.77;1.42;;;;;;;18.13;100.00;98415.69;4963792;28;20040;-88
2023/08/29 05:00:05;;;;;;;0.82;0.82;;;;;;;18.07;100.00;98414.22;4962273;28;20027;-88
2023/08/29 05:02:31;;;;;;;1.17;1.08;;;;;;;18.12;100.00;98416.19;4969119;28;20031;-88
2023/08/29 05:04:57;;;;;;;0.98;0.98;;;;;;;18.08;100.00;98404.50;4953884;28;20055;-88
2023/08/29 05:07:23;;;;;;;1.92;1.50;;;;;;;18.12;100.00;98405.72;4958288;28;20137;-88
2023/08/29 05:09:49;;;;;;;1.08;0.70;;;;;;;18.10;100.00;98421.59;4965610;28;20126;-88
2023/08/29 05:12:16;;;;;;;2.75;1.33;;;;;;;18.10;100.00;98421.59;4967491;28;20038;-88
2023/08/29 05:14:41;;;;;;;1.90;1.55;;;;;;;18.10;100.00;98422.34;4941466;28;20488;-89
2023/08/29 05:17:09;;;;;;;0.77;0.73;;;;;;;18.21;100.00;98421.47;4966035;28;20101;-90
2023/08/29 05:19:34;;;;;;;2.63;1.33;;;;;;;18.25;100.00;98427.53;4960709;28;20438;-89
2023/08/29 05:22:00;;;;;;;0.75;0.75;;;;;;;18.26;100.00;98423.44;4946463;28;20039;-89
2023/08/29 05:24:26;;;;;;;0.22;0.22;;;;;;;18.20;100.00;98419.94;4946152;28;20035;-88
2023/08/29 05:26:51;;;;;;;1.80;1.13;;;;;;;18.24;100.00;98417.59;4964323;28;20039;-88
2023/08/29 05:29:17;;;;;;;1.23;1.15;;;;;;;18.29;100.00;98416.75;4941313;28;20054;-89
2023/08/29 05:31:42;;;;;;;0.98;0.88;;;;;;;18.33;100.00;98410.84;4961502;28;20043;-88
2023/08/29 05:34:11;;;;;;;1.55;1.45;;;;;;;18.35;100.00;98400.63;4969020;28;20542;-89
2023/08/29 05:36:36;;;;;;;0.93;0.80;;;;;;;18.39;100.00;98403.91;4944293;28;20065;-88
2023/08/29 05:39:02;;;;;;;1.50;0.80;;;;;;;18.50;100.00;98400.19;4952433;28;20077;-89
2023/08/29 05:41:28;;;;;;;3.00;1.10;;;;;;;18.60;100.00;98424.56;4969534;28;20039;-89
2023/08/29 05:43:54;;;;;;;1.55;1.45;;;;;;;18.67;100.00;98428.06;4965982;28;20030;-89
2023/08/29 05:46:20;;;;;;;2.45;0.55;;;;;;;18.77;100.00;98444.00;4954956;28;20092;-89
2023/08/29 05:48:45;;;;;;;3.78;1.67;;;;;;;18.85;100.00;98439.28;4941664;28;20027;-89
2023/08/29 05:51:11;;;;;;;0.77;0.75;;;;;;;18.92;100.00;98440.75;4943834;28;20506;-89
2023/08/29 05:53:36;;;;;;;10.50;1.80;;;;;;;18.95;100.00;98442.47;4961801;28;20089;-89
2023/08/29 05:56:03;;;;;;;4.38;1.38;;;;;;;19.09;100.00;98435.63;4973381;28;20121;-88
2023/08/29 05:58:29;;;;;;;6.53;3.00;;;;;;;19.19;100.00;98433.19;4944607;28;20046;-89
2023/08/29 06:00:55;;;;;;;2.97;1.75;;;;;;;19.27;100.00;98445.31;4975841;28;20101;-88
2023/08/29 06:03:21;;;;;;;0.82;0.82;;;;;;;19.28;100.00;98464.47;4936780;28;20487;-89
2023/08/29 06:05:50;;;;;;;3.30;1.67;;;;;;;19.42;100.00;98474.50;4939502;28;20479;-88
2023/08/29 06:08:17;;;;;;;0.75;0.75;;;;;;;19.61;100.00;98462.47;4961368;28;20494;-88
2023/08/29 06:10:43;;;;;;;1.35;1.25;;;;;;;19.72;100.00;98467.88;4969657;28;20034;-88
2023/08/29 06:13:09;;;;;;;1.63;0.80;;;;;;;19.88;100.00;98484.50;4961601;28;20092;-88
2023/08/29 06:15:34;;;;;;;1.42;1.33;;;;;;;20.08;100.00;98490.78;4959162;28;20029;-89
2023/08/29 06:18:00;;;;;;;1.73;1.30;;;;;;;20.11;100.00;98487.66;4931997;28;20125;-89
2023/08/29 06:20:27;;;;;;;2.85;0.88;;;;;;;20.03;100.00;98479.09;4951950;28;20031;-88
2023/08/29 06:22:52;;;;;;;0.43;0.43;;;;;;;19.96;100.00;98504.31;4987835;28;20092;-88
2023/08/29 06:25:18;;;;;;;8.98;1.58;;;;;;;19.85;100.00;98499.63;4968291;28;20030;-88
2023/08/29 06:27:44;;;;;;;1.40;1.00;;;;;;;19.75;100.00;98487.25;4949992;28;20031;-88
2023/08/29 06:30:13;;;;;;;0.63;0.47;;;;;;;19.69;100.00;98494.28;4981239;28;20027;-89
2023/08/29 06:32:39;;;;;;;1.08;0.77;;;;;;;19.68;100.00;98487.91;4929876;28;20283;-89
2023/08/29 06:35:07;;;;;;;1.55;1.05;;;;;;;19.75;100.00;98500.56;4959264;28;20037;-89
2023/08/29 06:37:33;;;;;;;0.88;0.88;;;;;;;19.83;100.00;98509.91;4971960;28;20086;-90
2023/08/29 06:39:59;;;;;;;0.45;0.45;;;;;;;19.86;100.00;98506.00;4944277;28;20445;-88
2023/08/29 06:42:25;;;;;;;0.57;0.57;;;;;;;19.87;100.00;98504.72;4950262;28;20097;-88
2023/08/29 06:44:51;;;;;;;1.15;1.05;;;;;;;19.85;100.00;98505.28;4966518;28;20035;-89
2023/08/29 06:47:16;;;;;;;3.95;2.60;;;;;;;19.74;100.00;98499.03;4965076;28;20049;-90
2023/08/29 06:49:55;;;;;;;1.42;1.05;;;;;;;19.57;100.00;98507.00;4942056;28;20161;-91
2023/08/29 06:52:23;;;;;;;0.98;0.98;;;;;;;19.30;100.00;98490.00;4958630;28;20055;-91
2023/08/29 06:54:49;;;;;;;2.63;1.23;;;;;;;19.42;100.00;98502.63;4969687;28;20114;-90
2023/08/29 06:57:24;;;;;;;1.38;1.27;;;;;;;19.50;100.00;98492.25;4947246;28;20114;-90
2023/08/29 09:04:12;;;;;;;1.65;1.17;;;;;;;24.47;100.00;98561.97;1057964;26;20367;-91
2023/08/29 09:06:38;;;;;;;1.35;1.20;;;;;;;24.41;100.00;98535.16;4954895;28;20451;-92
2023/08/29 09:09:23;;;;;;;1.88;1.70;;;;;;;24.49;100.00;98545.19;4954936;28;20026;-92
2023/08/29 09:11:56;;;;;;;2.30;1.90;;;;;;;24.61;100.00;98545.53;4968581;28;20054;-92
2023/08/29 09:14:23;;;;;;;0.80;0.80;;;;;;;24.76;100.00;98534.16;4988460;28;20084;-93
2023/08/29 09:17:08;;;;;;;1.30;1.17;;;;;;;25.14;100.00;98533.31;4987086;28;20427;-92
2023/08/29 09:19:34;;;;;;;1.50;1.35;;;;;;;25.43;100.00;98529.56;4987776;28;20058;-92
2023/08/29 09:21:59;;;;;;;1.75;1.52;;;;;;;25.19;100.00;98529.50;4971284;28;20074;-92
2023/08/29 09:24:31;;;;;;;2.65;1.95;;;;;;;25.18;100.00;98528.00;4954702;28;20062;-92
2023/08/29 09:26:57;;;;;;;2.03;1.42;;;;;;;24.99;100.00;98520.66;5020251;28;20050;-93
2023/08/29 09:29:23;;;;;;;2.63;1.52;;;;;;;25.12;100.00;98519.69;4970956;28;20026;-92
2023/08/29 09:31:50;;;;;;;1.92;1.45;;;;;;;25.21;100.00;98518.31;4997744;28;20078;-92
2023/08/29 09:34:45;;;;;;;2.55;1.52;;;;;;;25.65;100.00;98505.22;4971126;28;20046;-92
2023/08/29 09:37:13;;;;;;;1.63;1.20;;;;;;;26.08;100.00;98512.50;4973978;28;20126;-93
2023/08/29 09:39:39;;;;;;;1.70;1.48;;;;;;;26.12;100.00;98520.63;4988552;28;20023;-93
2023/08/29 09:42:06;;;;;;;2.35;1.45;;;;;;;25.69;100.00;98508.44;4988907;28;20030;-93
2023/08/29 09:44:38;;;;;;;4.15;2.30;;;;;;;25.73;100.00;98496.66;4964762;28;20034;-93
2023/08/29 09:47:05;;;;;;;1.67;1.30;;;;;;;25.91;100.00;98518.88;4967651;28;20486;-94
2023/08/29 09:49:41;;;;;;;1.13;1.08;;;;;;;25.95;100.00;98507.09;4975825;28;20422;-94
2023/08/29 09:52:07;;;;;;;1.83;1.05;;;;;;;25.99;100.00;98518.81;4990351;28;20100;-93
2023/08/29 09:54:33;;;;;;;1.30;1.20;;;;;;;26.34;100.00;98516.84;4991034;28;20428;-92
2023/08/29 09:57:02;;;;;;;1.98;1.08;;;;;;;26.65;100.00;98512.34;4988955;28;20039;-93
2023/08/29 09:59:30;;;;;;;4.55;2.80;;;;;;;27.02;91.87;98515.38;4991610;28;20073;-93
2023/08/29 10:01:55;;;;;;;4.20;2.47;;;;;;;27.20;92.39;98523.31;5019184;28;20098;-93
2023/08/29 10:04:21;;;;;;;5.13;1.65;;;;;;;27.08;88.69;98510.19;4974334;28;20125;-92
2023/08/29 10:06:48;;;;;;;1.50;1.38;;;;;;;27.12;88.75;98502.75;4990646;28;20034;-94
2023/08/29 10:09:15;;;;;;;3.65;2.25;;;;;;;27.38;85.17;98521.16;4975350;28;20081;-93
2023/08/29 10:11:42;;;;;;;1.80;1.70;;;;;;;27.95;86.26;98520.00;4985952;28;20045;-95
2023/08/29 10:14:08;;;;;;;1.33;1.23;;;;;;;28.44;83.38;98524.53;4967489;28;20046;-96
2023/08/29 10:16:37;;;;;;;3.47;1.83;;;;;;;29.02;75.06;98517.56;4951593;28;20047;-95
2023/08/29 10:19:03;;;;;;;1.52;1.27;;;;;;;29.33;71.05;98516.94;4954001;28;20401;-95
2023/08/29 10:21:29;;;;;;;2.95;2.28;;;;;;;29.85;69.79;98528.53;4962051;28;20038;-96
2023/08/29 10:23:55;;;;;;;3.40;2.20;;;;;;;29.48;66.76;98497.34;4967663;28;20026;-96
2023/08/29 10:26:23;;;;;;;1.90;1.08;;;;;;;29.39;65.39;98501.00;4971396;28;20038;-96
2023/08/29 10:28:49;;;;;;;1.90;1.67;;;;;;;29.46;67.39;98500.09;4972299;28;20026;-96
2023/08/29 10:31:17;;;;;;;1.45;1.35;;;;;;;29.30;68.53;98515.28;4975978;28;20039;-96
2023/08/29 10:33:43;;;;;;;1.70;1.60;;;;;;;28.95;74.48;98503.44;4985967;28;20042;-96
2023/08/29 10:36:09;;;;;;;1.67;1.33;;;;;;;28.78;90.38;98520.72;4966523;28;20038;-96
2023/08/29 10:38:39;;;;;;;1.67;1.58;;;;;;;28.01;93.37;98489.13;4966746;28;20039;-96
2023/08/29 10:41:09;;;;;;;0.80;0.80;;;;;;;26.99;100.00;98513.72;4966319;28;20077;-96
2023/08/29 10:43:35;;;;;;;1.35;1.25;;;;;;;26.52;100.00;98506.25;4990778;28;20030;-96
2023/08/29 10:46:10;;;;;;;0.57;0.57;;;;;;;26.42;100.00;98515.44;4966567;28;20136;-96
2023/08/29 10:48:39;;;;;;;1.70;1.27;;;;;;;26.27;100.00;98515.59;4989955;28;20118;-96
2023/08/29 10:51:11;;;;;;;1.95;1.08;;;;;;;26.35;100.00;98512.66;4980617;28;20100;-95
2023/08/29 10:53:47;;;;;;;0.80;0.77;;;;;;;26.05;100.00;98504.38;4972630;28;20070;-95
2023/08/29 10:56:13;;;;;;;2.75;1.80;;;;;;;25.98;100.00;98514.47;4975316;28;20039;-94
2023/08/29 10:58:44;;;;;;;1.70;1.60;;;;;;;25.86;100.00;98521.94;4959506;28;20030;-94
2023/08/29 11:01:28;;;;;;;0.98;0.80;;;;;;;25.32;100.00;98537.75;4971595;28;20030;-95
2023/08/29 11:04:13;;;;;;;5.25;2.22;;;;;;;24.62;100.00;98518.69;4973864;28;20053;-94
2023/08/29 11:06:56;;;;;;;2.40;1.77;;;;;;;24.29;100.00;98494.38;4958726;28;20149;-94
2023/08/29 11:09:22;;;;;;;;;;;;;;;24.53;100.00;98533.44;4979283;28;20046;-93
2023/08/29 11:12:15;;;;;;;1.92;1.63;;;;;;;24.31;100.00;98522.88;4975236;28;19917;-94
2023/08/29 11:14:55;;;;;;;3.03;1.58;;;;;;;24.53;100.00;98502.28;4960289;28;20057;-95
2023/08/29 11:17:27;;;;;;;2.13;1.77;;;;;;;24.93;100.00;98517.31;4975265;28;20419;-96
2023/08/29 11:19:58;;;;;;;3.30;3.00;;;;;;;24.84;100.00;98517.88;4973807;28;20034;-95
2023/08/29 11:22:31;;;;;;;1.98;1.42;;;;;;;25.03;100.00;98498.34;4956266;28;20082;-94
2023/08/29 11:24:57;;;;;;;4.07;1.55;;;;;;;25.63;100.00;98513.59;4986269;28;20042;-93
2023/08/29 11:27:30;;;;;;;2.50;1.67;;;;;;;25.96;100.00;98498.00;4956443;28;20022;-94
2023/08/29 11:29:56;;;;;;;5.20;2.47;;;;;;;26.37;100.00;98513.56;4982874;28;20618;-94
2023/08/29 11:32:21;;;;;;;4.15;3.00;;;;;;;26.03;100.00;98495.69;4984034;28;20038;-94
2023/08/29 11:34:52;;;;;;;5.35;2.17;;;;;;;26.11;100.00;98502.06;4953368;28;20030;-94
2023/08/29 11:37:18;;;;;;;1.55;1.45;;;;;;;25.97;100.00;98487.38;4970471;28;20054;-94
2023/08/29 11:39:55;;;;;;;2.90;2.03;;;;;;;25.77;100.00;98485.66;4970834;28;20097;-95
2023/08/29 11:42:21;;;;;;;3.25;2.38;;;;;;;25.62;100.00;98508.47;4958256;28;20065;-94
2023/08/29 11:44:53;;;;;;;9.88;1.92;;;;;;;25.65;100.00;98518.66;4970958;28;20073;-92
2023/08/29 11:47:18;;;;;;;1.10;1.00;;;;;;;25.36;100.00;98504.81;4950455;28;20038;-94
2023/08/29 11:49:49;;;;;;;3.05;1.55;;;;;;;25.10;100.00;98511.00;4957894;28;20049;-95
2023/08/29 11:52:16;;;;;;;2.30;1.77;;;;;;;24.91;100.00;98511.44;4958076;28;20046;-94
2023/08/29 11:55:04;;;;;;;1.85;1.75;;;;;;;24.55;100.00;98536.47;4961550;28;20030;-95
2023/08/29 11:57:30;;;;;;;1.83;1.45;;;;;;;24.20;100.00;98540.28;4958651;28;20578;-95
2023/08/29 11:59:57;;;;;;;3.58;1.88;;;;;;;23.74;100.00;98545.88;4955350;28;20027;-93
2023/08/29 12:02:22;;;;;;;1.55;1.45;;;;;;;23.53;100.00;98514.91;4952811;28;20050;-94
2023/08/29 12:04:53;;;;;;;2.03;1.83;;;;;;;23.62;100.00;98516.41;5006866;28;20046;-96
2023/08/29 12:07:21;;;;;;;2.05;1.58;;;;;;;23.77;100.00;98515.69;4979880;28;20566;-96
2023/08/29 12:09:54;;;;;;;1.17;0.82;;;;;;;23.89;100.00;98516.84;4985780;28;20042;-95
2023/08/29 12:12:32;;;;;;;1.35;1.25;;;;;;;23.76;100.00;98505.69;4949526;28;20116;-96
2023/08/29 12:14:58;;;;;;;1.88;1.50;;;;;;;23.87;100.00;98531.53;4987201;28;20045;-95
2023/08/29 12:17:38;;;;;;;1.23;0.90;;;;;;;23.91;100.00;98520.59;4957773;28;20030;-96
2023/08/29 12:20:23;;;;;;;1.60;1.45;;;;;;;23.91;100.00;98537.59;4974332;28;20046;-96
2023/08/29 12:22:50;;;;;;;1.98;1.67;;;;;;;23.15;100.00;98537.38;4974060;28;20035;-96
2023/08/29 12:25:16;;;;;;;1.15;1.05;;;;;;;22.81;100.00;98553.78;4958311;28;20140;-96
2023/08/29 12:27:48;;;;;;;0.93;0.88;;;;;;;22.24;100.00;98553.75;4961306;28;20034;-96
2023/08/29 12:30:14;;;;;;;1.23;0.70;;;;;;;21.97;100.00;98529.81;4976132;28;20042;-96
2023/08/29 12:32:44;;;;;;;4.28;1.42;;;;;;;22.24;100.00;98550.94;4975713;28;20034;-96
2023/08/29 12:35:10;;;;;;;4.78;1.15;;;;;;;22.24;100.00;98548.09;4958605;28;20041;-96
2023/08/29 12:37:39;;;;;;;1.27;1.23;;;;;;;21.86;100.00;98549.84;4958844;28;20026;-96
2023/08/29 12:40:08;;;;;;;1.98;1.23;;;;;;;21.52;100.00;98555.50;4974568;28;20070;-95
2023/08/29 12:42:35;;;;;;;2.10;1.27;;;;;;;21.30;100.00;98576.53;4959076;28;20137;-96
2023/08/29 12:45:06;;;;;;;1.33;1.23;;;;;;;21.23;100.00;98584.88;5007797;28;20042;-96
2023/08/29 12:47:31;;;;;;;1.95;1.48;;;;;;;20.99;100.00;98571.75;4958682;28;20038;-96
2023/08/29 12:50:00;;;;;;;1.05;0.98;;;;;;;21.26;100.00;98607.13;4959149;28;20558;-96
2023/08/29 12:52:29;;;;;;;0.80;0.80;;;;;;;21.10;100.00;98608.19;4959396;28;20034;-96
2023/08/29 12:54:57;;;;;;;1.48;1.13;;;;;;;21.27;100.00;98638.91;4975617;28;20042;-96
2023/08/29 12:57:23;;;;;;;0.82;0.63;;;;;;;20.90;100.00;98622.94;4974261;28;20076;-96
2023/08/29 12:59:52;;;;;;;1.05;0.95;;;;;;;20.57;100.00;98617.94;4957656;28;20038;-96
2023/08/29 13:02:21;;;;;;;0.90;0.90;;;;;;;20.59;100.00;98599.19;4955505;28;20482;-96
2023/08/29 13:04:50;;;;;;;1.25;1.15;;;;;;;20.66;100.00;98580.88;4957663;28;20447;-94
2023/08/29 13:07:18;;;;;;;0.60;0.60;;;;;;;20.54;100.00;98552.16;4973198;28;20030;-96
2023/08/29 13:09:48;;;;;;;0.32;0.32;;;;;;;20.79;100.00;98578.06;4958341;28;20560;-94
2023/08/29 13:12:14;;;;;;;5.07;1.45;;;;;;;20.85;100.00;98558.97;5004778;28;20065;-92
2023/08/29 13:14:39;;;;;;;1.58;1.48;;;;;;;20.97;100.00;98565.16;4967386;28;20030;-92
2023/08/29 13:17:05;;;;;;;1.35;1.20;;;;;;;20.86;100.00;98571.78;4982797;28;20030;-94
2023/08/29 13:19:34;;;;;;;1.50;1.20;;;;;;;20.68;100.00;98572.63;4971340;28;20034;-94
2023/08/29 13:22:03;;;;;;;0.93;0.88;;;;;;;20.82;100.00;98605.94;4982904;28;20034;-95
2023/08/29 13:24:29;;;;;;;0.77;0.77;;;;;;;20.51;100.00;98591.91;4957193;28;20030;-92
2023/08/29 13:26:55;;;;;;;2.05;1.92;;;;;;;20.38;100.00;98579.31;4986594;28;20030;-92
2023/08/29 13:29:20;;;;;;;0.57;0.57;;;;;;;20.39;100.00;98575.22;4976348;28;20026;-95
2023/08/29 13:31:46;;;;;;;1.08;0.90;;;;;;;20.25;100.00;98570.84;4974733;28;20062;-93
2023/08/29 13:34:11;;;;;;;0.63;0.63;;;;;;;20.23;100.00;98553.72;4974522;28;20459;-94